Time;durP1;ratioP1;P1;durP2;ratioP2;P2;SDS_P1;SDS_P2;PMS_P1;PMS_P2;Temp;Humidity;BMP_temperature;BMP_pressure;BME280_temperature;BME280_humidity;BME280_pressure;Samples;Min_cycle;Max_cycle;Signal;HPM_P1;HPM_P2
2022/06/11 00:01:43;;;;;;;;;;;23.90;92.80;;;;;;5072563;28;20402;-56
2022/06/11 00:04:14;;;;;;;;;;;23.90;92.80;;;;;;5068716;28;19925;-57
2022/06/11 00:06:42;;;;;;;;;;;23.90;92.80;;;;;;5058946;28;19936;-59
2022/06/11 00:09:10;;;;;;;;;;;23.90;92.80;;;;;;5059727;28;19928;-60
2022/06/11 00:11:38;;;;;;;;;;;23.90;92.80;;;;;;5070941;28;20323;-61
2022/06/11 00:14:05;;;;;;;;;;;23.90;92.80;;;;;;5073682;28;19944;-61
2022/06/11 00:16:33;;;;;;;;;;;23.90;92.90;;;;;;5070109;28;19959;-63
2022/06/11 00:19:01;;;;;;;;;;;23.90;92.90;;;;;;5070567;28;19932;-61
2022/06/11 00:21:30;;;;;;;;;;;23.90;92.90;;;;;;5072465;28;19932;-60
2022/06/11 00:23:58;;;;;;;;;;;23.90;93.00;;;;;;5072699;28;19928;-60
2022/06/11 00:26:25;;;;;;;;;;;23.90;92.90;;;;;;5065913;28;19940;-58
2022/06/11 00:28:53;;;;;;;;;;;23.80;92.90;;;;;;5072397;28;20043;-60
2022/06/11 00:31:20;;;;;;;;;;;23.90;93.00;;;;;;5072756;28;19935;-61
2022/06/11 00:33:47;;;;;;;;;;;23.90;93.00;;;;;;5074217;28;19936;-57
2022/06/11 00:36:16;;;;;;;;;;;23.80;93.00;;;;;;5063519;28;19929;-60
2022/06/11 00:38:43;;;;;;;;;;;23.90;93.00;;;;;;5067902;28;19935;-59
2022/06/11 00:41:10;;;;;;;;;;;23.90;93.10;;;;;;5069862;28;19947;-63
2022/06/11 00:43:39;;;;;;;;;;;23.80;93.10;;;;;;5075926;28;19943;-61
2022/06/11 00:46:25;;;;;;;;;;;23.80;93.10;;;;;;5061335;28;19928;-62
2022/06/11 00:48:52;;;;;;;;;;;23.90;93.10;;;;;;5068422;28;19928;-61
2022/06/11 00:51:21;;;;;;;;;;;23.90;93.10;;;;;;5065118;28;19924;-61
2022/06/11 00:53:50;;;;;;;;;;;23.90;93.20;;;;;;5059082;28;19936;-59
2022/06/11 00:56:22;;;;;;;;;;;23.90;93.20;;;;;;5055997;28;19943;-63
2022/06/11 00:58:53;;;;;;;;;;;23.80;93.20;;;;;;5070071;28;19935;-59
2022/06/11 01:01:21;;;;;;;;;;;23.90;93.30;;;;;;5072182;28;20355;-59
2022/06/11 01:03:51;;;;;;;;;;;23.80;93.20;;;;;;5068060;28;19935;-60
2022/06/11 01:06:27;;;;;;;;;;;23.80;93.20;;;;;;5067534;28;19929;-59
2022/06/11 01:09:16;;;;;;;;;;;23.80;93.30;;;;;;5055268;28;19936;-61
2022/06/11 01:11:46;;;;;;;;;;;23.90;93.30;;;;;;5071553;28;20307;-59
2022/06/11 01:14:24;;;;;;;;;;;23.80;93.20;;;;;;5071732;28;19944;-59
2022/06/11 01:16:55;;;;;;;;;;;23.80;93.30;;;;;;5062062;28;19928;-60
2022/06/11 01:19:25;;;;;;;;;;;23.80;93.40;;;;;;5061347;28;19935;-61
2022/06/11 01:22:07;;;;;;;;;;;23.80;93.60;;;;;;5060599;28;19935;-60
2022/06/11 01:24:34;;;;;;;;;;;23.80;93.40;;;;;;5059313;28;19936;-59
2022/06/11 01:27:02;;;;;;;;;;;23.80;93.70;;;;;;5073664;28;19940;-62
2022/06/11 01:29:48;;;;;;;;;;;23.80;93.40;;;;;;5058902;28;19925;-62
2022/06/11 01:32:34;;;;;;;;;;;23.80;93.50;;;;;;5072421;28;19928;-63
2022/06/11 01:35:05;;;;;;;;;;;23.80;93.50;;;;;;5065599;28;19928;-60
2022/06/11 01:37:37;;;;;;;;;;;23.80;93.50;;;;;;5068376;28;19925;-68
2022/06/11 01:40:14;;;;;;;;;;;23.80;93.50;;;;;;5075973;28;19928;-65
2022/06/11 01:42:44;;;;;;;;;;;23.80;93.50;;;;;;5060485;28;20007;-63
2022/06/11 01:45:17;;;;;;;;;;;23.80;93.50;;;;;;5061877;28;19936;-64
2022/06/11 01:47:44;;;;;;;;;;;23.80;93.50;;;;;;5066685;28;19928;-61
2022/06/11 01:50:14;;;;;;;;;;;23.70;93.50;;;;;;5074370;28;20338;-62
2022/06/11 01:52:41;;;;;;;;;;;23.80;93.50;;;;;;5071364;28;19939;-60
2022/06/11 01:55:22;;;;;;;;;;;23.80;93.50;;;;;;5072012;28;19929;-63
2022/06/11 01:58:00;;;;;;;;;;;23.80;93.50;;;;;;5072267;28;19928;-62
2022/06/11 02:00:30;;;;;;;;;;;23.80;93.50;;;;;;5066200;28;20330;-58
2022/06/11 02:03:00;;;;;;;;;;;23.80;93.50;;;;;;5055474;28;19960;-65
2022/06/11 02:05:46;;;;;;;;;;;23.80;93.50;;;;;;5056144;28;19928;-63
2022/06/11 02:08:40;;;;;;;;;;;23.70;93.80;;;;;;5071219;28;19928;-63
2022/06/11 02:11:19;;;;;;;;;;;23.70;93.60;;;;;;5054066;28;19936;-62
2022/06/11 02:13:54;;;;;;;;;;;23.70;93.60;;;;;;5058934;28;19939;-61
2022/06/11 02:16:39;;;;;;;;;;;23.70;93.60;;;;;;5060941;28;19952;-59
2022/06/11 02:19:09;;;;;;;;;;;23.70;93.90;;;;;;5072245;28;19935;-61
2022/06/11 02:21:40;;;;;;;;;;;23.70;93.60;;;;;;5072729;28;19932;-61
2022/06/11 02:24:11;;;;;;;;;;;23.70;93.70;;;;;;5058327;28;19929;-62
2022/06/11 02:26:44;;;;;;;;;;;23.70;93.70;;;;;;5069634;28;19924;-63
2022/06/11 02:29:13;;;;;;;;;;;23.70;93.70;;;;;;5053910;28;19928;-62
2022/06/11 02:31:46;;;;;;;;;;;23.70;93.70;;;;;;5063981;28;19939;-60
2022/06/11 02:34:15;;;;;;;;;;;23.70;93.70;;;;;;5053990;28;19929;-65
2022/06/11 02:36:58;;;;;;;;;;;23.70;94.00;;;;;;5052165;28;20403;-63
2022/06/11 02:39:27;;;;;;;;;;;23.70;93.70;;;;;;5067324;28;19943;-65
2022/06/11 02:41:54;;;;;;;;;;;23.70;93.70;;;;;;5065938;28;19925;-62
2022/06/11 02:44:21;;;;;;;;;;;23.70;93.70;;;;;;5060874;28;19937;-60
2022/06/11 02:46:49;;;;;;;;;;;23.70;93.80;;;;;;5062278;28;19936;-62
2022/06/11 02:49:21;;;;;;;;;;;23.70;93.80;;;;;;5066130;28;19937;-61
2022/06/11 02:51:49;;;;;;;;;;;23.70;93.80;;;;;;5071191;28;20258;-63
2022/06/11 02:54:18;;;;;;;;;;;23.70;93.80;;;;;;5069082;28;20395;-61
2022/06/11 02:56:46;;;;;;;;;;;23.70;93.80;;;;;;5056006;28;19925;-62
2022/06/11 02:59:13;;;;;;;;;;;23.70;93.80;;;;;;5069909;28;19940;-59
2022/06/11 03:01:41;;;;;;;;;;;23.70;93.80;;;;;;5065328;28;19923;-61
2022/06/11 03:04:09;;;;;;;;;;;23.60;93.70;;;;;;5058835;28;19924;-62
2022/06/11 03:06:41;;;;;;;;;;;23.70;93.80;;;;;;5063007;28;19928;-61
2022/06/11 03:09:09;;;;;;;;;;;23.70;93.80;;;;;;5069207;28;19935;-62
2022/06/11 03:11:37;;;;;;;;;;;23.70;93.80;;;;;;5066141;28;19928;-64
2022/06/11 03:14:04;;;;;;;;;;;23.60;93.80;;;;;;5059468;28;19948;-60
2022/06/11 03:16:32;;;;;;;;;;;23.60;94.10;;;;;;5055098;28;20325;-61
2022/06/11 03:19:00;;;;;;;;;;;23.60;93.90;;;;;;5064413;28;20312;-65
2022/06/11 03:21:27;;;;;;;;;;;23.60;93.80;;;;;;5065055;28;19934;-63
2022/06/11 03:23:54;;;;;;;;;;;23.60;93.90;;;;;;5058599;28;19925;-63
2022/06/11 03:26:22;;;;;;;;;;;23.60;93.80;;;;;;5072360;28;19955;-61
2022/06/11 03:28:49;;;;;;;;;;;23.60;93.80;;;;;;5055193;28;20140;-62
2022/06/11 03:31:16;;;;;;;;;;;23.60;93.80;;;;;;5065460;28;19929;-60
2022/06/11 03:33:44;;;;;;;;;;;23.60;93.80;;;;;;5060667;28;19929;-60
2022/06/11 03:36:13;;;;;;;;;;;23.60;93.90;;;;;;5067325;28;20000;-62
2022/06/11 03:38:41;;;;;;;;;;;23.60;93.90;;;;;;5069214;28;19936;-62
2022/06/11 03:41:08;;;;;;;;;;;23.60;93.90;;;;;;5069379;28;20167;-61
2022/06/11 03:43:35;;;;;;;;;;;23.60;94.00;;;;;;5060683;28;19932;-61
2022/06/11 03:46:04;;;;;;;;;;;23.60;94.00;;;;;;5070382;28;19932;-60
2022/06/11 03:48:32;;;;;;;;;;;23.60;94.10;;;;;;5057455;28;20384;-59
2022/06/11 03:50:59;;;;;;;;;;;23.60;94.10;;;;;;5068500;28;19928;-60
2022/06/11 03:53:28;;;;;;;;;;;23.60;94.40;;;;;;5064933;28;19925;-64
2022/06/11 03:55:56;;;;;;;;;;;23.60;94.20;;;;;;5071652;28;19936;-60
2022/06/11 03:58:23;;;;;;;;;;;23.60;94.30;;;;;;5057703;28;19932;-63
2022/06/11 04:03:37;;;;;;;;;;;23.60;94.30;;;;;;5070405;28;19935;-63
2022/06/11 04:06:05;;;;;;;;;;;23.50;94.30;;;;;;5057357;28;19932;-59
2022/06/11 04:08:33;;;;;;;;;;;23.60;94.20;;;;;;5066389;28;20022;-64
2022/06/11 04:11:01;;;;;;;;;;;23.60;94.20;;;;;;5067526;28;19935;-60
2022/06/11 04:13:29;;;;;;;;;;;23.50;94.10;;;;;;5064691;28;19933;-59
2022/06/11 04:15:57;;;;;;;;;;;23.60;94.10;;;;;;5058288;28;19924;-63
2022/06/11 04:18:39;;;;;;;;;;;23.60;94.20;;;;;;5056719;28;19928;-61
2022/06/11 04:21:09;;;;;;;;;;;23.60;94.10;;;;;;5068120;28;19925;-60
2022/06/11 04:23:37;;;;;;;;;;;23.50;94.10;;;;;;5070869;28;20403;-62
2022/06/11 04:26:05;;;;;;;;;;;23.50;94.20;;;;;;5066522;28;20372;-63
2022/06/11 04:28:33;;;;;;;;;;;23.50;94.10;;;;;;5062882;28;19939;-64
2022/06/11 04:31:01;;;;;;;;;;;23.50;94.10;;;;;;5068655;28;20035;-63
2022/06/11 04:33:29;;;;;;;;;;;23.50;94.10;;;;;;5066196;28;19932;-63
2022/06/11 04:35:56;;;;;;;;;;;23.60;94.10;;;;;;5061319;28;19929;-63
2022/06/11 04:38:23;;;;;;;;;;;23.60;94.10;;;;;;5063634;28;19933;-62
2022/06/11 04:40:50;;;;;;;;;;;23.60;94.10;;;;;;5064609;28;19935;-63
2022/06/11 04:43:17;;;;;;;;;;;23.60;94.30;;;;;;5069744;28;19928;-63
2022/06/11 04:45:45;;;;;;;;;;;23.60;94.30;;;;;;5073295;28;19924;-65
2022/06/11 04:48:12;;;;;;;;;;;23.60;94.30;;;;;;5059053;28;20336;-63
2022/06/11 04:50:40;;;;;;;;;;;23.60;94.10;;;;;;5062517;28;19935;-60
2022/06/11 04:53:07;;;;;;;;;;;23.60;94.10;;;;;;5071959;28;19936;-62
2022/06/11 04:55:35;;;;;;;;;;;23.60;94.10;;;;;;5055832;28;19952;-61
2022/06/11 04:58:03;;;;;;;;;;;23.60;94.10;;;;;;5070489;28;20161;-64
2022/06/11 05:00:31;;;;;;;;;;;23.60;94.10;;;;;;5068073;28;19924;-63
2022/06/11 05:02:58;;;;;;;;;;;23.60;94.10;;;;;;5067527;28;19929;-62
2022/06/11 05:05:25;;;;;;;;;;;23.60;94.40;;;;;;5071739;28;19943;-60
2022/06/11 05:07:53;;;;;;;;;;;23.60;94.10;;;;;;5067372;28;19940;-64
2022/06/11 05:10:21;;;;;;;;;;;23.60;94.00;;;;;;5065939;28;20443;-60
2022/06/11 05:12:48;;;;;;;;;;;23.60;93.90;;;;;;5070597;28;19936;-63
2022/06/11 05:15:16;;;;;;;;;;;23.60;93.90;;;;;;5062687;28;19933;-61
2022/06/11 05:17:43;;;;;;;;;;;23.60;93.80;;;;;;5065609;28;19944;-60
2022/06/11 05:20:12;;;;;;;;;;;23.50;93.80;;;;;;5066539;28;19939;-61
2022/06/11 05:22:40;;;;;;;;;;;23.60;94.00;;;;;;5056017;28;19924;-58
2022/06/11 05:25:07;;;;;;;;;;;23.60;94.00;;;;;;5065400;28;19929;-60
2022/06/11 05:27:35;;;;;;;;;;;23.60;94.20;;;;;;5065439;28;19935;-60
2022/06/11 05:30:06;;;;;;;;;;;23.60;94.30;;;;;;5066555;28;19940;-62
2022/06/11 05:32:37;;;;;;;;;;;23.60;94.20;;;;;;5069260;28;19932;-60
2022/06/11 05:35:05;;;;;;;;;;;23.60;94.20;;;;;;5060760;28;19929;-63
2022/06/11 05:37:33;;;;;;;;;;;23.60;94.20;;;;;;5060704;28;20427;-62
2022/06/11 05:40:01;;;;;;;;;;;23.50;93.80;;;;;;5065295;28;19924;-64
2022/06/11 05:42:28;;;;;;;;;;;23.50;95.00;;;;;;5061059;28;19932;-64
2022/06/11 05:44:55;;;;;;;;;;;23.50;94.70;;;;;;5064664;28;19928;-63
2022/06/11 05:47:24;;;;;;;;;;;23.50;94.50;;;;;;5059228;28;19929;-62
2022/06/11 05:49:54;;;;;;;;;;;23.40;94.30;;;;;;5057405;28;20324;-62
2022/06/11 05:52:26;;;;;;;;;;;23.50;94.20;;;;;;5051031;28;19925;-61
2022/06/11 05:54:54;;;;;;;;;;;23.50;94.10;;;;;;5054468;28;19928;-61
2022/06/11 05:57:23;;;;;;;;;;;23.40;93.50;;;;;;5060405;28;19932;-61
2022/06/11 05:59:52;;;;;;;;;;;23.40;94.00;;;;;;5067037;28;20348;-58
2022/06/11 06:02:20;;;;;;;;;;;23.30;93.90;;;;;;5052470;28;19929;-60
2022/06/11 06:04:48;;;;;;;;;;;23.30;93.90;;;;;;5067524;28;20339;-61
2022/06/11 06:07:15;;;;;;;;;;;23.30;93.90;;;;;;5069562;28;19931;-59
2022/06/11 06:09:42;;;;;;;;;;;23.30;93.80;;;;;;5057988;28;19935;-60
2022/06/11 06:12:09;;;;;;;;;;;23.30;93.90;;;;;;5054185;28;19924;-59
2022/06/11 06:14:36;;;;;;;;;;;23.30;93.80;;;;;;5054679;28;19925;-59
2022/06/11 06:17:03;;;;;;;;;;;23.30;93.80;;;;;;5054457;28;20243;-57
2022/06/11 06:19:51;;;;;;;;;;;23.40;93.80;;;;;;5061155;28;20026;-60
2022/06/11 06:22:18;;;;;;;;;;;23.40;93.80;;;;;;5075383;28;19928;-60
2022/06/11 06:24:47;;;;;;;;;;;23.30;93.70;;;;;;5063569;28;19944;-63
2022/06/11 06:27:14;;;;;;;;;;;23.30;93.70;;;;;;5066394;28;19932;-59
2022/06/11 06:29:41;;;;;;;;;;;23.30;93.70;;;;;;5075252;28;19932;-61
2022/06/11 06:32:09;;;;;;;;;;;23.20;93.80;;;;;;5058486;28;19924;-59
2022/06/11 06:34:36;;;;;;;;;;;23.30;93.80;;;;;;5057666;28;20291;-64
2022/06/11 06:37:03;;;;;;;;;;;23.30;93.70;;;;;;5066762;28;20426;-57
2022/06/11 06:39:32;;;;;;;;;;;23.20;93.70;;;;;;5059996;28;19935;-60
2022/06/11 06:41:59;;;;;;;;;;;23.20;93.90;;;;;;5061370;28;19929;-59
2022/06/11 06:44:29;;;;;;;;;;;23.30;93.80;;;;;;5070615;28;19924;-58
2022/06/11 06:46:57;;;;;;;;;;;23.30;93.70;;;;;;5071938;28;19931;-61
2022/06/11 06:49:24;;;;;;;;;;;23.30;93.70;;;;;;5055956;28;19929;-57
2022/06/11 06:51:51;;;;;;;;;;;23.30;93.70;;;;;;5053776;28;19924;-60
2022/06/11 06:54:18;;;;;;;;;;;23.30;93.70;;;;;;5054785;28;19925;-58
2022/06/11 06:56:45;;;;;;;;;;;23.40;93.70;;;;;;5055308;28;19932;-56
2022/06/11 06:59:12;;;;;;;;;;;23.40;93.70;;;;;;5066971;28;19935;-61
2022/06/11 07:01:40;;;;;;;;;;;23.30;93.70;;;;;;5071827;28;19943;-55
2022/06/11 07:04:08;;;;;;;;;;;23.30;93.70;;;;;;5053044;28;20419;-59
2022/06/11 07:06:51;;;;;;;;;;;23.30;93.70;;;;;;5053811;28;20070;-59
2022/06/11 07:09:18;;;;;;;;;;;23.20;93.70;;;;;;5052030;28;19936;-55
2022/06/11 07:11:45;;;;;;;;;;;23.20;93.60;;;;;;5060279;28;19972;-58
2022/06/11 07:14:12;;;;;;;;;;;23.30;93.60;;;;;;5071600;28;20443;-58
2022/06/11 07:16:43;;;;;;;;;;;23.30;93.80;;;;;;5070627;28;19932;-57
2022/06/11 07:19:17;;;;;;;;;;;23.30;93.90;;;;;;5065108;28;19936;-56
2022/06/11 07:21:45;;;;;;;;;;;23.30;93.70;;;;;;5066154;28;19932;-59
2022/06/11 07:24:18;;;;;;;;;;;23.30;93.70;;;;;;5058926;28;19928;-61
2022/06/11 07:26:50;;;;;;;;;;;23.20;93.60;;;;;;5058673;28;19929;-59
2022/06/11 07:29:24;;;;;;;;;;;23.20;93.70;;;;;;5057344;28;19928;-59
2022/06/11 07:31:53;;;;;;;;;;;23.20;93.90;;;;;;5069458;28;20521;-58
2022/06/11 07:34:20;;;;;;;;;;;23.20;93.60;;;;;;5060406;28;19929;-58
2022/06/11 07:36:48;;;;;;;;;;;23.20;93.90;;;;;;5050322;28;19940;-63
2022/06/11 07:39:15;;;;;;;;;;;23.20;93.90;;;;;;5057492;28;19929;-58
2022/06/11 07:41:42;;;;;;;;;;;23.20;94.00;;;;;;5061393;28;20100;-59
2022/06/11 07:44:11;;;;;;;;;;;23.30;94.00;;;;;;5062852;28;19928;-56
2022/06/11 07:46:38;;;;;;;;;;;23.40;94.20;;;;;;5060230;28;19929;-61
2022/06/11 07:49:05;;;;;;;;;;;23.30;94.70;;;;;;5057166;28;19939;-59
2022/06/11 07:51:32;;;;;;;;;;;23.40;94.70;;;;;;5064653;28;19948;-61
2022/06/11 07:53:59;;;;;;;;;;;23.50;94.70;;;;;;5061485;28;19929;-57
2022/06/11 07:56:26;;;;;;;;;;;23.50;94.50;;;;;;5060788;28;19931;-58
2022/06/11 07:58:54;;;;;;;;;;;23.50;94.60;;;;;;5062565;28;19925;-58
2022/06/11 08:01:21;;;;;;;;;;;23.50;94.40;;;;;;5070903;28;19924;-58
2022/06/11 08:03:48;;;;;;;;;;;23.40;93.30;;;;;;5061901;28;19935;-58
2022/06/11 08:06:15;;;;;;;;;;;23.40;93.30;;;;;;5062194;28;19924;-61
2022/06/11 08:08:45;;;;;;;;;;;23.40;92.30;;;;;;5064494;28;19977;-58
2022/06/11 08:11:12;;;;;;;;;;;23.30;92.20;;;;;;5067498;28;19931;-58
2022/06/11 08:13:39;;;;;;;;;;;23.20;92.20;;;;;;5059268;28;19996;-60
2022/06/11 08:16:07;;;;;;;;;;;23.20;92.00;;;;;;5066136;28;19936;-57
2022/06/11 08:18:34;;;;;;;;;;;23.20;92.10;;;;;;5061901;28;20024;-60
2022/06/11 08:21:02;;;;;;;;;;;23.30;92.10;;;;;;5052916;28;20028;-60
2022/06/11 08:23:29;;;;;;;;;;;23.40;92.30;;;;;;5064116;28;19935;-63
2022/06/11 08:25:56;;;;;;;;;;;23.40;92.00;;;;;;5071779;28;20334;-58
2022/06/11 08:28:24;;;;;;;;;;;23.40;90.70;;;;;;5064831;28;19932;-61
2022/06/11 08:30:51;;;;;;;;;;;23.40;91.30;;;;;;5067614;28;19932;-59
2022/06/11 08:33:19;;;;;;;;;;;23.30;90.90;;;;;;5062727;28;19925;-60
2022/06/11 08:35:46;;;;;;;;;;;23.40;90.90;;;;;;5065746;28;19929;-59
2022/06/11 08:38:13;;;;;;;;;;;23.40;91.20;;;;;;5067559;28;19986;-64
2022/06/11 08:40:45;;;;;;;;;;;23.40;92.20;;;;;;5059675;28;20001;-60
2022/06/11 08:43:32;;;;;;;;;;;23.50;91.90;;;;;;5060267;28;20454;-67
2022/06/11 08:46:16;;;;;;;;;;;23.50;91.30;;;;;;5066621;28;19936;-66
2022/06/11 08:48:45;;;;;;;;;;;23.50;91.00;;;;;;5062108;28;19936;-65
2022/06/11 08:51:15;;;;;;;;;;;23.60;91.60;;;;;;5066264;28;20002;-68
2022/06/11 08:53:42;;;;;;;;;;;23.70;92.20;;;;;;5068056;28;19924;-65
2022/06/11 08:56:19;;;;;;;;;;;23.70;91.30;;;;;;5068592;28;19932;-60
2022/06/11 08:59:09;;;;;;;;;;;23.70;92.00;;;;;;5065331;28;19928;-62
2022/06/11 09:01:47;;;;;;;;;;;23.80;91.20;;;;;;5059810;28;20346;-60
2022/06/11 09:04:27;;;;;;;;;;;23.80;90.80;;;;;;5066732;28;19963;-60
2022/06/11 09:07:11;;;;;;;;;;;23.80;91.10;;;;;;5075769;28;19932;-62
2022/06/11 09:09:48;;;;;;;;;;;23.70;90.20;;;;;;5071994;28;19936;-61
2022/06/11 09:12:34;;;;;;;;;;;23.70;90.50;;;;;;5059317;28;20374;-63
2022/06/11 09:15:08;;;;;;;;;;;23.80;90.60;;;;;;5063980;28;19940;-61
2022/06/11 09:17:55;;;;;;;;;;;23.90;91.20;;;;;;5055693;28;19932;-60
2022/06/11 09:20:41;;;;;;;;;;;24.00;91.60;;;;;;5067676;28;19928;-60
2022/06/11 09:23:08;;;;;;;;;;;24.00;91.70;;;;;;5071472;28;19936;-60
2022/06/11 09:25:55;;;;;;;;;;;24.00;92.20;;;;;;5066350;28;19929;-63
2022/06/11 09:28:34;;;;;;;;;;;24.10;92.70;;;;;;5066520;28;19928;-66
2022/06/11 09:31:07;;;;;;;;;;;24.00;92.10;;;;;;5060055;28;19929;-62
2022/06/11 09:33:54;;;;;;;;;;;24.00;91.70;;;;;;5068465;28;19936;-63
2022/06/11 09:36:27;;;;;;;;;;;24.00;91.70;;;;;;5020545;28;19963;-59
2022/06/11 09:39:00;;;;;;;;;;;24.00;91.50;;;;;;5062330;28;20360;-59
2022/06/11 09:41:27;;;;;;;;;;;24.00;91.40;;;;;;5065191;28;20540;-62
2022/06/11 09:44:03;;;;;;;;;;;24.00;91.80;;;;;;5064371;28;19925;-62
2022/06/11 09:46:46;;;;;;;;;;;23.90;92.00;;;;;;5072863;28;19938;-55
2022/06/11 09:49:16;;;;;;;;;;;23.90;92.20;;;;;;5068822;28;20128;-57
2022/06/11 09:51:44;;;;;;;;;;;23.90;93.10;;;;;;5074944;28;19928;-62
2022/06/11 09:54:11;;;;;;;;;;;24.00;92.70;;;;;;5067698;28;20007;-59
2022/06/11 09:56:41;;;;;;;;;;;24.00;92.70;;;;;;5067715;28;19948;-63
2022/06/11 09:59:11;;;;;;;;;;;24.00;92.70;;;;;;5059220;28;19925;-58
2022/06/11 10:01:58;;;;;;;;;;;24.00;92.60;;;;;;5063639;28;19925;-61
2022/06/11 10:04:28;;;;;;;;;;;24.00;92.70;;;;;;5064633;28;19939;-58
2022/06/11 10:07:05;;;;;;;;;;;23.90;92.60;;;;;;5059047;28;19932;-62
2022/06/11 10:09:44;;;;;;;;;;;23.90;92.30;;;;;;5059632;28;20392;-61
2022/06/11 10:12:17;;;;;;;;;;;23.90;92.30;;;;;;5053226;28;19929;-60
2022/06/11 10:14:54;;;;;;;;;;;23.90;92.20;;;;;;5054619;28;19925;-61
2022/06/11 10:17:30;;;;;;;;;;;23.90;92.20;;;;;;5053052;28;19925;-61
2022/06/11 10:20:18;;;;;;;;;;;23.90;92.20;;;;;;5063200;28;20032;-59
2022/06/11 10:22:48;;;;;;;;;;;23.90;92.20;;;;;;5051482;28;19936;-60
2022/06/11 10:25:19;;;;;;;;;;;23.90;92.20;;;;;;5062544;28;20028;-58
2022/06/11 10:27:54;;;;;;;;;;;24.00;92.30;;;;;;5064474;28;19932;-63
2022/06/11 10:30:29;;;;;;;;;;;23.90;92.30;;;;;;5066825;28;19925;-61
2022/06/11 10:32:57;;;;;;;;;;;23.90;92.30;;;;;;5048638;28;19924;-59
2022/06/11 10:35:37;;;;;;;;;;;24.00;92.30;;;;;;5048708;28;19929;-60
2022/06/11 10:38:25;;;;;;;;;;;23.90;92.30;;;;;;5066766;28;19935;-61
2022/06/11 10:40:52;;;;;;;;;;;24.00;92.30;;;;;;5043132;28;19976;-59
2022/06/11 10:43:32;;;;;;;;;;;23.90;92.30;;;;;;5049468;28;20288;-60
2022/06/11 10:46:00;;;;;;;;;;;23.90;92.30;;;;;;5062870;28;19932;-61
2022/06/11 10:48:36;;;;;;;;;;;24.00;92.30;;;;;;5056575;28;19929;-62
2022/06/11 10:51:07;;;;;;;;;;;24.00;92.30;;;;;;5049069;28;19932;-60
2022/06/11 10:53:41;;;;;;;;;;;24.00;92.30;;;;;;5057478;28;19929;-61
2022/06/11 10:56:08;;;;;;;;;;;24.00;92.30;;;;;;5049635;28;19936;-62
2022/06/11 10:58:38;;;;;;;;;;;24.00;92.30;;;;;;5069190;28;19925;-61
2022/06/11 11:01:09;;;;;;;;;;;24.00;92.30;;;;;;5052127;28;20043;-61
2022/06/11 11:03:43;;;;;;;;;;;24.00;92.30;;;;;;5049032;28;19944;-61
2022/06/11 11:06:37;;;;;;;;;;;24.00;92.40;;;;;;5056292;28;19928;-61
2022/06/11 11:09:06;;;;;;;;;;;24.00;92.40;;;;;;5051944;28;19939;-61
2022/06/11 11:11:44;;;;;;;;;;;24.00;92.40;;;;;;5057187;28;19928;-60
2022/06/11 11:14:14;;;;;;;;;;;24.00;92.40;;;;;;5057190;28;19925;-63
2022/06/11 11:16:47;;;;;;;;;;;24.00;92.70;;;;;;5062958;28;19932;-62
2022/06/11 11:19:18;;;;;;;;;;;24.00;92.80;;;;;;5061417;28;19936;-66
2022/06/11 11:21:54;;;;;;;;;;;24.10;92.80;;;;;;5062096;28;19935;-63
2022/06/11 11:24:24;;;;;;;;;;;24.10;93.00;;;;;;5064352;28;19929;-63
2022/06/11 11:26:56;;;;;;;;;;;24.10;93.30;;;;;;5060181;28;19931;-64
2022/06/11 11:29:24;;;;;;;;;;;24.20;93.80;;;;;;5066783;28;20399;-64
2022/06/11 11:31:57;;;;;;;;;;;24.20;93.80;;;;;;5064461;28;19925;-66
2022/06/11 11:34:29;;;;;;;;;;;24.20;94.10;;;;;;5055874;28;19936;-66
2022/06/11 11:36:58;;;;;;;;;;;24.30;94.30;;;;;;5061240;28;20261;-64
2022/06/11 11:39:29;;;;;;;;;;;24.30;94.60;;;;;;5065684;28;19928;-62
2022/06/11 11:42:13;;;;;;;;;;;24.30;94.60;;;;;;5063359;28;19929;-65
2022/06/11 11:44:49;;;;;;;;;;;24.30;94.90;;;;;;5075525;28;19936;-66
2022/06/11 11:47:18;;;;;;;;;;;24.30;95.20;;;;;;5063415;28;19932;-64
2022/06/11 11:49:49;;;;;;;;;;;24.40;95.20;;;;;;5067153;28;19928;-64
2022/06/11 11:52:20;;;;;;;;;;;24.40;95.30;;;;;;5067671;28;19932;-64
2022/06/11 11:55:01;;;;;;;;;;;24.40;95.60;;;;;;5060638;28;19932;-66
2022/06/11 11:57:30;;;;;;;;;;;24.40;95.80;;;;;;5060057;28;19928;-68
2022/06/11 12:00:03;;;;;;;;;;;24.40;95.60;;;;;;5063593;28;19929;-66
2022/06/11 12:02:34;;;;;;;;;;;24.40;95.90;;;;;;5070810;28;19929;-64
2022/06/11 12:05:09;;;;;;;;;;;24.40;96.00;;;;;;5067605;28;19929;-65
2022/06/11 12:07:40;;;;;;;;;;;24.30;96.00;;;;;;5066618;28;19955;-68
2022/06/11 12:10:16;;;;;;;;;;;24.30;96.10;;;;;;5045990;28;20236;-67
2022/06/11 12:12:48;;;;;;;;;;;24.30;96.20;;;;;;5052828;28;20336;-63
2022/06/11 12:15:17;;;;;;;;;;;24.40;96.20;;;;;;5059405;28;19932;-62
2022/06/11 12:17:50;;;;;;;;;;;24.50;96.20;;;;;;5063604;28;20460;-68
2022/06/11 12:20:23;;;;;;;;;;;24.50;96.30;;;;;;5068056;28;19939;-68
2022/06/11 12:22:55;;;;;;;;;;;24.50;96.30;;;;;;5057101;28;19929;-66
2022/06/11 12:25:34;;;;;;;;;;;24.50;96.30;;;;;;5049274;28;19967;-62
2022/06/11 12:28:01;;;;;;;;;;;24.50;96.20;;;;;;5053544;28;19929;-63
2022/06/11 12:30:29;;;;;;;;;;;24.50;96.20;;;;;;5053509;28;20023;-63
2022/06/11 12:32:58;;;;;;;;;;;24.50;96.20;;;;;;5054004;28;19928;-65
2022/06/11 12:35:28;;;;;;;;;;;24.50;96.50;;;;;;5051295;28;19935;-66
2022/06/11 12:37:58;;;;;;;;;;;24.50;96.30;;;;;;5058406;28;19936;-63
2022/06/11 12:40:43;;;;;;;;;;;24.50;96.40;;;;;;5056885;28;20650;-60
2022/06/11 12:43:13;;;;;;;;;;;24.50;96.40;;;;;;5053071;28;19928;-59
2022/06/11 12:45:56;;;;;;;;;;;24.60;96.40;;;;;;5056139;28;19998;-64
2022/06/11 12:48:43;;;;;;;;;;;24.60;96.30;;;;;;5060395;28;19928;-64
2022/06/11 12:51:16;;;;;;;;;;;24.60;96.60;;;;;;5050554;28;19988;-61
2022/06/11 12:53:57;;;;;;;;;;;24.70;97.20;;;;;;5035451;28;19932;-60
2022/06/11 12:56:43;;;;;;;;;;;24.70;97.00;;;;;;5056826;28;19939;-65
2022/06/11 12:59:30;;;;;;;;;;;24.70;96.70;;;;;;5056981;28;19925;-65
2022/06/11 13:02:16;;;;;;;;;;;24.70;96.30;;;;;;5040951;28;19935;-64
2022/06/11 13:04:49;;;;;;;;;;;24.80;96.00;;;;;;5055353;28;20325;-66
2022/06/11 13:07:17;;;;;;;;;;;24.80;95.80;;;;;;5053267;28;19948;-67
2022/06/11 13:09:50;;;;;;;;;;;24.80;95.60;;;;;;5054995;28;19929;-63
2022/06/11 13:12:35;;;;;;;;;;;24.80;95.60;;;;;;5057925;28;19933;-66
2022/06/11 13:15:22;;;;;;;;;;;24.90;95.60;;;;;;5056006;28;19933;-63
2022/06/11 13:18:00;;;;;;;;;;;24.80;95.60;;;;;;5056935;28;19933;-65
2022/06/11 13:20:32;;;;;;;;;;;24.80;95.50;;;;;;5058793;28;19933;-63
2022/06/11 13:23:19;;;;;;;;;;;24.80;95.60;;;;;;5058248;28;19943;-70
2022/06/11 13:25:49;;;;;;;;;;;24.80;95.70;;;;;;5066766;28;19929;-64
2022/06/11 13:28:43;;;;;;;;;;;24.90;95.70;;;;;;5061832;28;20007;-61
2022/06/11 13:31:20;;;;;;;;;;;24.90;95.70;;;;;;5058831;28;19935;-58
2022/06/11 13:34:06;;;;;;;;;;;24.80;95.80;;;;;;5061216;28;20416;-64
2022/06/11 13:36:33;;;;;;;;;;;24.80;95.80;;;;;;5062183;28;19936;-67
2022/06/11 13:39:09;;;;;;;;;;;24.80;95.60;;;;;;5066067;28;20398;-58
2022/06/11 13:41:49;;;;;;;;;;;24.90;95.40;;;;;;5056802;28;19985;-65
2022/06/11 13:44:29;;;;;;;;;;;24.90;95.20;;;;;;5059438;28;19928;-61
2022/06/11 13:47:13;;;;;;;;;;;25.00;95.10;;;;;;5063558;28;19928;-63
2022/06/11 13:50:00;;;;;;;;;;;25.10;95.00;;;;;;5065798;28;19932;-61
2022/06/11 13:55:29;;;;;;;;;;;25.20;95.00;;;;;;5066239;28;19924;-64
2022/06/11 13:57:56;;;;;;;;;;;25.20;94.90;;;;;;5072875;28;19928;-61
2022/06/11 14:00:26;;;;;;;;;;;25.30;94.80;;;;;;5062564;28;19928;-67
2022/06/11 14:03:11;;;;;;;;;;;25.30;94.60;;;;;;5062983;28;19932;-62
2022/06/11 14:05:42;;;;;;;;;;;25.20;94.60;;;;;;5071330;28;19931;-59
2022/06/11 14:08:09;;;;;;;;;;;25.20;94.50;;;;;;5057665;28;19925;-61
2022/06/11 14:10:39;;;;;;;;;;;25.30;94.40;;;;;;5057160;28;19933;-67
2022/06/11 14:13:06;;;;;;;;;;;25.30;94.30;;;;;;5068808;28;19925;-62
2022/06/11 14:15:42;;;;;;;;;;;25.40;94.10;;;;;;5067722;28;19928;-59
2022/06/11 14:18:24;;;;;;;;;;;25.30;94.00;;;;;;5060122;28;19925;-58
2022/06/11 14:21:14;;;;;;;;;;;25.40;93.90;;;;;;5073091;28;19935;-62
2022/06/11 14:23:43;;;;;;;;;;;25.50;94.10;;;;;;5056330;28;19943;-63
2022/06/11 14:26:13;;;;;;;;;;;25.50;93.90;;;;;;5059891;28;19928;-65
2022/06/11 14:28:44;;;;;;;;;;;25.50;93.90;;;;;;5061642;28;19936;-65
2022/06/11 14:31:12;;;;;;;;;;;25.50;93.90;;;;;;5067551;28;19931;-65
2022/06/11 14:33:41;;;;;;;;;;;25.60;93.80;;;;;;5060570;28;19925;-65
2022/06/11 14:36:21;;;;;;;;;;;25.60;93.70;;;;;;5066165;28;20424;-64
2022/06/11 14:38:54;;;;;;;;;;;25.70;93.80;;;;;;5062310;28;19939;-66
2022/06/11 14:41:42;;;;;;;;;;;25.80;93.90;;;;;;5060143;28;19924;-63
2022/06/11 14:44:15;;;;;;;;;;;25.80;93.90;;;;;;5064734;28;20473;-69
2022/06/11 14:46:53;;;;;;;;;;;25.80;93.90;;;;;;5062042;28;19929;-62
2022/06/11 14:49:36;;;;;;;;;;;25.90;93.90;;;;;;5060041;28;19924;-59